KTUL/TUL METAR and TAF weather

Enter ICAO airport designator
Station Type Date Time Source
KTUL METAR 2022/06/27 07:53 UTC NOAA

KTUL 270753Z 01006KT 10SM BKN120 BKN200 21/13 A3025 RMK AO2 SLP236 T02060133


Station Type Date Time Source
KTUL Decoded METAR 2022/06/27 07:53 UTC NOAA

TULSA INTERNATIONAL AIRPORT, OK, United States (KTUL) 36-12N 95-53W 207M
Jun 27, 2022 - 03:53 AM EDT / 2022.06.27 0753 UTC
Wind: from the N (010 degrees) at 7 MPH (6 KT):0
Visibility: 10 mile(s):0
Sky conditions: mostly cloudy
Temperature: 69.1 F (20.6 C)
Dew Point: 55.9 F (13.3 C)
Relative Humidity: 62%
Pressure (altimeter): 30.25 in. Hg (1024 hPa)
ob: KTUL 270753Z 01006KT 10SM BKN120 BKN200 21/13 A3025 RMK AO2 SLP236 T02060133
cycle: 8

Station Type Date Time Source
KTUL TAF 2022/06/27 06:22 UTC NOAA

TAF KTUL 270520Z 2706/2806 02009KT P6SM OVC200
FM271500 05008KT P6SM BKN250

Example: see airport list